This is the latest recevied weather packets stored in our database for station/object K0SNA. If no packets are shown the sender has not sent any weather packets the latest 10 day(s).
| Time | Temp. | Humidity | Pressure | Rain* | Wind** | Luminosity | Snow |
|---|---|---|---|---|---|---|---|
| 1777664226 | 11.11° C | 37% | 1019 hPa | 0 mm | - | 299 W/m² | - |
| 1777663924 | 10.56° C | 35% | 1019.1 hPa | 0 mm | - | 709 W/m² | - |
| 1777663621 | 10° C | 36% | 1019.4 hPa | 0 mm | - | 320 W/m² | - |
| 1777663319 | 10° C | 35% | 1019.1 hPa | 0 mm | - | 189 W/m² | - |
| 1777663016 | 10° C | 36% | 1019.1 hPa | 0 mm | - | 191 W/m² | - |
| 1777662713 | 11.11° C | 34% | 1019.1 hPa | 0 mm | - | 256 W/m² | - |
| 1777662409 | 10° C | 36% | 1019.3 hPa | 0 mm | - | 756 W/m² | - |
| 1777662104 | 10.56° C | 34% | 1019.2 hPa | 0 mm | - | 161 W/m² | - |
| 1777661800 | 11.67° C | 34% | 1019.1 hPa | 0 mm | - | 775 W/m² | - |
| 1777661496 | 10° C | 37% | 1019.2 hPa | 0 mm | - | 149 W/m² | - |
| 1777661193 | 10.56° C | 35% | 1019 hPa | 0 mm | - | 286 W/m² | - |
| 1777660887 | 10.56° C | 36% | 1019.2 hPa | 0 mm | - | 206 W/m² | - |
| 1777660585 | 10° C | 35% | 1019.4 hPa | 0 mm | - | 806 W/m² | - |
| 1777660281 | 10.56° C | 36% | 1019.2 hPa | 0 mm | - | 830 W/m² | - |
| 1777659978 | 9.44° C | 38% | 1019.3 hPa | 0 mm | - | 783 W/m² | - |
| 1777659675 | 10° C | 38% | 1019.5 hPa | 0 mm | - | 233 W/m² | - |
| 1777659372 | 10° C | 37% | 1019.5 hPa | 0 mm | - | 207 W/m² | - |
| 1777659068 | 10.56° C | 35% | 1019.3 hPa | 0 mm | - | 830 W/m² | - |
| 1777658767 | 10.56° C | 36% | 1019.3 hPa | 0 mm | - | 651 W/m² | - |
| 1777658462 | 9.44° C | 37% | 1019.2 hPa | 0 mm | - | 813 W/m² | - |
| 1777658159 | 10° C | 36% | 1019.4 hPa | 0 mm | - | 599 W/m² | - |
| 1777657856 | 10° C | 36% | 1019.3 hPa | 0 mm | - | 570 W/m² | - |
| 1777657553 | 10.56° C | 34% | 1019.4 hPa | 0 mm | - | 583 W/m² | - |
| 1777657251 | 10° C | 36% | 1019.7 hPa | 0 mm | - | 837 W/m² | - |
| 1777656948 | 10° C | 35% | 1019.8 hPa | 0 mm | - | 755 W/m² | - |
* Rain latest hour (hover to see other rain measurements)
** Current wind speed in m/s (hover to see current wind gust speed)